Metar z połowy godziny Komunikat METAR ze strony awiacja.imgw.pl Metar Mil EPLY METAR EPLY 230730Z 24012KT 9999 SCT014 06/03 Q1020 RMK 064 079 4/4=